createdAt,value
2022-10-15T00:01:35.575Z,158631.16
2022-10-15T00:04:03.283Z,158635.19
2022-10-15T00:06:32.820Z,158643.16
2022-10-15T00:09:00.541Z,158625.81
2022-10-15T00:11:29.281Z,158613.84
2022-10-15T00:13:59.286Z,158617.81
2022-10-15T00:16:28.690Z,158619.16
2022-10-15T00:18:58.996Z,158652.47
2022-10-15T00:21:27.097Z,158676.44
2022-10-15T00:23:55.832Z,158637.81
2022-10-15T00:26:26.181Z,158611.16
2022-10-15T00:28:57.101Z,158567.22
2022-10-15T00:31:27.248Z,158553.91
2022-10-15T00:33:57.786Z,158569.88
2022-10-15T00:36:28.489Z,158532.59
2022-10-15T00:38:57.286Z,158556.53
2022-10-15T00:41:33.733Z,158557.91
2022-10-15T00:44:23.241Z,158553.91
2022-10-15T00:46:56.767Z,158595.19
2022-10-15T00:49:31.255Z,158592.50
2022-10-15T00:52:13.414Z,158593.88
2022-10-15T00:54:43.923Z,158607.19
2022-10-15T00:57:11.773Z,158624.50
2022-10-15T00:59:43.493Z,158640.47
2022-10-15T01:02:12.269Z,158639.13
2022-10-15T01:04:41.734Z,158648.44
2022-10-15T01:07:09.613Z,158648.44
2022-10-15T01:09:42.880Z,158647.13
2022-10-15T01:12:24.629Z,158656.50
2022-10-15T01:15:16.535Z,158667.13
2022-10-15T01:17:55.050Z,158680.44
2022-10-15T01:20:47.489Z,158672.47
2022-10-15T01:23:36.819Z,158661.78
2022-10-15T01:26:23.132Z,158661.78
2022-10-15T01:28:54.703Z,158659.13
2022-10-15T01:31:29.135Z,158648.44
2022-10-15T01:34:02.822Z,158643.16
2022-10-15T01:36:55.360Z,158633.81
2022-10-15T01:39:31.087Z,158649.81
2022-10-15T01:42:31.857Z,158644.47
2022-10-15T01:45:07.433Z,158640.47
2022-10-15T01:47:55.471Z,158620.47
2022-10-15T01:50:26.096Z,158639.13
2022-10-15T01:52:56.236Z,158620.47
2022-10-15T01:55:25.869Z,158619.16
2022-10-15T01:57:56.078Z,158613.84
2022-10-15T02:00:26.704Z,158609.84
2022-10-15T02:02:54.522Z,158595.19
2022-10-15T02:05:26.128Z,158592.50
2022-10-15T02:08:05.616Z,158581.88
2022-10-15T02:10:48.776Z,158585.88
2022-10-15T02:13:26.424Z,158580.56
2022-10-15T02:16:07.069Z,158591.19
2022-10-15T02:18:57.113Z,158601.84
2022-10-15T02:21:35.476Z,158607.19
2022-10-15T02:24:12.349Z,158608.53
2022-10-15T02:26:43.602Z,158595.19
2022-10-15T02:29:13.639Z,158593.88
2022-10-15T02:31:44.268Z,158605.81
2022-10-15T02:34:15.668Z,158604.50
2022-10-15T02:36:44.023Z,158611.16
2022-10-15T02:39:13.753Z,158600.53
2022-10-15T02:41:42.505Z,158595.19
2022-10-15T02:44:13.665Z,158577.84
2022-10-15T02:46:41.494Z,158575.22
2022-10-15T02:49:11.393Z,158575.22
2022-10-15T02:51:39.388Z,158579.22
2022-10-15T02:54:08.749Z,158579.22
2022-10-15T02:56:39.641Z,158579.22
2022-10-15T02:59:08.267Z,158573.88
2022-10-15T03:01:35.870Z,158568.56
2022-10-15T03:04:06.214Z,158563.22
2022-10-15T03:06:34.951Z,158556.53
2022-10-15T03:09:03.032Z,158553.91
2022-10-15T03:11:32.513Z,158539.25
2022-10-15T03:14:00.176Z,158539.25
2022-10-15T03:16:28.519Z,158540.59
2022-10-15T03:18:56.480Z,158523.28
2022-10-15T03:21:24.799Z,158511.28
2022-10-15T03:23:58.801Z,158492.63
2022-10-15T03:26:27.972Z,158499.28
2022-10-15T03:28:55.982Z,158482.00
2022-10-15T03:31:36.425Z,158488.66
2022-10-15T03:34:05.388Z,158478.00
2022-10-15T03:36:33.835Z,158462.03
2022-10-15T03:39:02.442Z,158474.03
2022-10-15T03:41:30.928Z,158455.38
2022-10-15T03:44:06.613Z,158458.00
2022-10-15T03:46:37.160Z,158452.72
2022-10-15T03:49:05.879Z,158464.66
2022-10-15T03:51:33.632Z,158467.38
2022-10-15T03:54:07.330Z,158472.66
2022-10-15T03:56:42.522Z,158467.38
2022-10-15T03:59:24.942Z,158460.69
2022-10-15T04:01:59.551Z,158446.06
2022-10-15T04:04:28.390Z,158452.72
2022-10-15T04:06:56.846Z,158423.38
2022-10-15T04:09:24.934Z,158454.03
2022-10-15T04:11:53.425Z,158444.69
2022-10-15T04:14:21.679Z,158460.69
2022-10-15T04:16:50.172Z,158472.66
2022-10-15T04:19:23.346Z,158488.66
2022-10-15T04:22:00.713Z,158492.63
2022-10-15T04:24:33.424Z,158509.97
2022-10-15T04:27:01.258Z,158512.63
2022-10-15T04:29:29.580Z,158517.94
2022-10-15T04:34:50.563Z,158549.88
2022-10-15T04:37:26.456Z,158552.59
2022-10-15T04:39:54.233Z,158560.56
2022-10-15T04:42:22.449Z,158560.56
2022-10-15T04:44:50.430Z,158576.53
2022-10-15T04:47:18.769Z,158584.50
2022-10-15T04:49:53.213Z,158595.19
2022-10-15T04:52:44.480Z,158613.84
2022-10-15T04:55:14.411Z,158601.84
2022-10-15T04:57:42.105Z,158632.47
2022-10-15T05:00:10.849Z,158627.13
2022-10-15T05:02:43.294Z,158643.16
2022-10-15T05:05:33.517Z,158657.81
2022-10-15T05:08:05.916Z,158661.78
2022-10-15T05:10:46.038Z,158659.13
2022-10-15T05:13:15.032Z,158656.50
2022-10-15T05:15:43.143Z,158681.75
2022-10-15T05:18:11.423Z,158688.44
2022-10-15T05:20:51.872Z,158699.13
2022-10-15T05:23:20.642Z,158703.06
2022-10-15T05:26:03.621Z,158708.41
2022-10-15T05:28:32.256Z,158699.13
2022-10-15T05:31:19.295Z,158703.06
2022-10-15T05:33:48.630Z,158715.09
2022-10-15T05:36:19.868Z,158745.72
2022-10-15T05:38:57.543Z,158743.06
2022-10-15T05:41:26.590Z,158743.06
2022-10-15T05:43:57.861Z,158765.72
2022-10-15T05:46:29.532Z,158795.06
2022-10-15T05:48:58.683Z,158851.03
2022-10-15T05:51:29.189Z,158883.06
2022-10-15T05:54:03.826Z,158925.72
2022-10-15T05:56:32.489Z,158947.03
2022-10-15T05:59:00.176Z,158949.69
2022-10-15T06:01:28.873Z,158976.38
2022-10-15T06:03:56.773Z,158984.34
2022-10-15T06:06:27.513Z,159031.06
2022-10-15T06:08:56.606Z,159019.03
2022-10-15T06:11:24.383Z,159040.38
2022-10-15T06:13:52.241Z,159081.72
2022-10-15T06:16:23.684Z,159108.41
2022-10-15T06:18:54.180Z,159161.72
2022-10-15T06:21:22.272Z,159221.78
2022-10-15T06:23:50.774Z,159295.19
2022-10-15T06:26:18.450Z,159341.94
2022-10-15T06:28:49.788Z,159392.63
2022-10-15T06:31:17.598Z,159440.69
2022-10-15T06:33:45.374Z,159428.66
2022-10-15T06:36:16.762Z,159426.00
2022-10-15T06:38:47.738Z,159482.09
2022-10-15T06:41:16.940Z,159495.44
2022-10-15T06:43:47.822Z,159451.34
2022-10-15T06:46:16.206Z,159444.72
2022-10-15T06:48:44.021Z,159424.69
2022-10-15T06:51:12.390Z,159427.34
2022-10-15T06:53:45.047Z,159430.00
2022-10-15T06:56:12.747Z,159463.38
2022-10-15T06:58:43.521Z,159491.41
2022-10-15T07:01:11.965Z,159498.09
2022-10-15T07:03:39.889Z,159554.19
2022-10-15T07:06:09.740Z,159615.63
2022-10-15T07:08:37.581Z,159655.66
2022-10-15T07:11:07.779Z,159687.78
2022-10-15T07:13:35.660Z,159754.59
2022-10-15T07:16:06.328Z,159793.34
2022-10-15T07:18:35.641Z,159842.78
2022-10-15T07:21:04.747Z,159888.19
2022-10-15T07:23:33.216Z,159897.56
2022-10-15T07:26:01.844Z,159959.03
2022-10-15T07:28:29.798Z,160007.16
2022-10-15T07:31:03.291Z,160064.69
2022-10-15T07:33:33.751Z,160138.28
2022-10-15T07:36:06.366Z,160203.78
2022-10-15T07:38:35.063Z,160213.13
2022-10-15T07:41:04.635Z,160213.13
2022-10-15T07:43:34.935Z,160218.50
2022-10-15T07:46:03.810Z,160229.22
2022-10-15T07:48:32.389Z,160254.59
2022-10-15T07:51:05.469Z,160223.84
2022-10-15T07:53:34.601Z,160178.41
2022-10-15T07:56:06.358Z,160219.81
2022-10-15T07:58:37.838Z,160233.22
2022-10-15T08:01:07.383Z,160237.25
2022-10-15T08:03:36.070Z,160253.28
2022-10-15T08:06:06.810Z,160277.38
2022-10-15T08:08:36.342Z,160269.31
2022-10-15T08:11:14.749Z,160280.03
2022-10-15T08:13:43.652Z,160338.91
2022-10-15T08:16:14.020Z,160407.19
2022-10-15T08:18:43.686Z,160459.38
2022-10-15T08:21:12.238Z,160525.00
2022-10-15T08:23:40.329Z,160558.44
2022-10-15T08:26:08.602Z,160618.69
2022-10-15T08:28:36.790Z,160621.34
2022-10-15T08:31:06.275Z,160636.09
2022-10-15T08:33:35.819Z,160665.59
2022-10-15T08:36:08.104Z,160695.09
2022-10-15T08:38:36.655Z,160713.81
2022-10-15T08:41:12.361Z,160770.06
2022-10-15T08:43:44.060Z,160807.59
2022-10-15T08:46:21.577Z,160820.94
2022-10-15T08:48:53.983Z,160835.72
2022-10-15T08:51:26.982Z,160893.31
2022-10-15T08:54:03.305Z,160882.59
2022-10-15T08:56:36.845Z,160869.19
2022-10-15T08:59:32.109Z,160802.22
2022-10-15T09:02:24.244Z,160818.28
2022-10-15T09:05:16.888Z,160807.59
2022-10-15T09:08:06.766Z,160818.28
2022-10-15T09:10:41.410Z,160866.50
2022-10-15T09:13:22.012Z,160881.25
2022-10-15T09:16:13.165Z,160866.50
2022-10-15T09:18:43.994Z,160851.78
2022-10-15T09:21:14.529Z,160808.94
2022-10-15T09:23:44.220Z,160800.91
2022-10-15T09:26:49.949Z,160820.94
2022-10-15T09:29:29.477Z,160804.88
2022-10-15T09:32:31.660Z,160782.13
2022-10-15T09:35:24.224Z,160806.22
2022-10-15T09:38:15.589Z,160827.66
2022-10-15T09:41:02.237Z,160830.34
2022-10-15T09:43:38.398Z,160803.56
2022-10-15T09:46:06.813Z,160807.59
2022-10-15T09:48:44.574Z,160811.59
2022-10-15T09:51:27.029Z,160788.81
2022-10-15T09:54:13.441Z,160749.97
2022-10-15T09:56:50.163Z,160786.16
2022-10-15T09:59:19.581Z,160804.88
2022-10-15T10:02:00.256Z,160807.59
2022-10-15T10:04:31.652Z,160767.41
2022-10-15T10:07:03.420Z,160787.50
2022-10-15T10:09:52.751Z,160810.25
2022-10-15T10:12:27.310Z,160798.19
2022-10-15T10:14:59.178Z,160850.44
2022-10-15T10:17:29.586Z,160865.19
2022-10-15T10:20:16.015Z,160875.88
2022-10-15T10:22:56.003Z,160854.44
2022-10-15T10:25:27.302Z,160901.34
2022-10-15T10:27:57.185Z,160929.50
2022-10-15T10:30:27.915Z,160975.09
2022-10-15T10:32:57.719Z,160984.50
2022-10-15T10:35:30.113Z,160992.53
2022-10-15T10:37:57.901Z,161022.00
2022-10-15T10:40:33.083Z,161035.41
2022-10-15T10:43:18.538Z,161028.72
2022-10-15T10:46:15.036Z,161024.66
2022-10-15T10:48:50.243Z,161058.19
2022-10-15T10:51:24.705Z,161098.41
2022-10-15T10:53:57.522Z,161141.31
2022-10-15T10:56:43.876Z,161137.25
2022-10-15T10:59:37.130Z,161146.69
2022-10-15T11:02:09.630Z,161209.66
2022-10-15T11:04:39.445Z,161228.44
2022-10-15T11:07:19.880Z,161243.22
2022-10-15T11:09:59.749Z,161267.41
2022-10-15T11:12:34.196Z,161224.44
2022-10-15T11:15:39.230Z,161232.47
2022-10-15T11:18:44.916Z,161206.97
2022-10-15T11:21:24.465Z,161166.75
2022-10-15T11:24:11.125Z,161194.91
2022-10-15T11:27:10.149Z,161216.34
2022-10-15T11:30:01.309Z,161282.16
2022-10-15T11:33:05.456Z,161280.75
2022-10-15T11:35:52.895Z,161244.56
2022-10-15T11:38:43.000Z,161239.25
2022-10-15T11:41:37.238Z,161180.16
2022-10-15T11:44:46.638Z,161178.81
2022-10-15T11:47:26.686Z,161152.00
2022-10-15T11:50:18.011Z,161146.69
2022-10-15T11:52:58.562Z,161137.25
2022-10-15T11:55:38.079Z,161107.78
2022-10-15T11:58:29.600Z,161109.09
2022-10-15T12:01:01.814Z,161118.53
2022-10-15T12:03:32.509Z,161145.28
2022-10-15T12:06:04.333Z,161141.31
2022-10-15T12:08:35.833Z,161142.63
2022-10-15T12:11:03.801Z,161134.59
2022-10-15T12:13:46.283Z,161148.00
2022-10-15T12:16:38.520Z,161162.75
2022-10-15T12:19:20.977Z,161170.78
2022-10-15T12:22:06.963Z,161154.72
2022-10-15T12:24:38.471Z,161166.75
2022-10-15T12:27:35.986Z,161182.88
2022-10-15T12:30:04.134Z,161194.91
2022-10-15T12:32:41.734Z,161181.50
2022-10-15T12:35:15.607Z,161153.34
2022-10-15T12:37:46.098Z,161153.34
2022-10-15T12:40:22.822Z,161135.94
2022-10-15T12:42:58.104Z,161137.25
2022-10-15T12:45:48.843Z,161123.84
2022-10-15T12:48:16.745Z,161118.53
2022-10-15T12:50:47.820Z,161113.16
2022-10-15T12:53:33.101Z,161102.41
2022-10-15T12:56:24.304Z,161097.09
2022-10-15T12:58:54.139Z,161106.44
2022-10-15T13:01:22.891Z,161107.78
2022-10-15T13:03:50.658Z,161107.78
2022-10-15T13:06:26.150Z,161098.41
2022-10-15T13:09:14.546Z,161078.31
2022-10-15T13:11:48.991Z,161098.41
2022-10-15T13:14:28.580Z,161076.97
2022-10-15T13:17:03.656Z,161078.31
2022-10-15T13:19:39.363Z,161083.66
2022-10-15T13:22:24.111Z,161048.81
2022-10-15T13:24:52.677Z,161062.22
2022-10-15T13:27:26.342Z,161070.25
2022-10-15T13:30:06.859Z,161071.59
2022-10-15T13:32:39.090Z,161070.25
2022-10-15T13:35:12.029Z,161075.59
2022-10-15T13:37:41.602Z,161060.84
2022-10-15T13:40:29.966Z,161043.44
2022-10-15T13:43:00.378Z,161035.41
2022-10-15T13:45:29.082Z,161026.00
2022-10-15T13:47:57.509Z,161027.38
2022-10-15T13:50:36.362Z,161030.03
2022-10-15T13:53:12.992Z,161027.38
2022-10-15T13:55:46.388Z,161034.09
2022-10-15T13:58:29.858Z,161034.09
2022-10-15T14:01:01.255Z,161020.69
2022-10-15T14:03:33.855Z,161003.22
2022-10-15T14:06:22.500Z,161008.59
2022-10-15T14:08:56.771Z,160972.41
2022-10-15T14:11:26.317Z,160972.41
2022-10-15T14:13:56.965Z,160975.09
2022-10-15T14:16:35.946Z,160954.91
2022-10-15T14:19:07.318Z,160957.63
2022-10-15T14:21:36.843Z,160946.88
2022-10-15T14:24:06.587Z,160950.94
2022-10-15T14:26:36.084Z,160940.19
2022-10-15T14:29:03.858Z,160912.03
2022-10-15T14:31:46.649Z,160871.91
2022-10-15T14:34:36.462Z,160922.78
2022-10-15T14:37:42.679Z,160921.47
2022-10-15T14:40:13.434Z,160920.13
2022-10-15T14:42:43.934Z,160920.13
2022-10-15T14:45:17.980Z,160922.78
2022-10-15T14:48:00.812Z,160934.88
2022-10-15T14:50:32.303Z,160906.72
2022-10-15T14:53:01.300Z,160893.31
2022-10-15T14:55:38.308Z,160873.22
2022-10-15T14:58:18.013Z,160875.88
2022-10-15T15:00:47.966Z,160865.19
2022-10-15T15:03:20.112Z,160862.47
2022-10-15T15:05:53.484Z,160862.47
2022-10-15T15:08:25.589Z,160859.81
2022-10-15T15:10:56.099Z,160847.75
2022-10-15T15:13:25.684Z,160863.88
2022-10-15T15:15:54.219Z,160843.75
2022-10-15T15:18:22.245Z,160851.78
2022-10-15T15:20:50.946Z,160835.72
2022-10-15T15:23:22.196Z,160834.34
2022-10-15T15:25:50.815Z,160847.75
2022-10-15T15:28:21.805Z,160839.72
2022-10-15T15:31:11.359Z,160842.44
2022-10-15T15:33:39.611Z,160837.06
2022-10-15T15:36:20.855Z,160843.75
2022-10-15T15:38:51.861Z,160833.00
2022-10-15T15:41:21.635Z,160838.38
2022-10-15T15:43:50.263Z,160833.00
2022-10-15T15:46:18.098Z,160818.28
2022-10-15T15:48:46.416Z,160823.66
2022-10-15T15:51:29.090Z,160814.28
2022-10-15T15:53:59.409Z,160812.91
2022-10-15T15:56:27.074Z,160802.22
2022-10-15T15:58:54.911Z,160796.84
2022-10-15T16:01:22.854Z,160799.50
2022-10-15T16:03:51.081Z,160807.59
2022-10-15T16:06:19.070Z,160798.19
2022-10-15T16:08:47.664Z,160788.81
2022-10-15T16:11:15.402Z,160764.72
2022-10-15T16:13:43.663Z,160772.75
2022-10-15T16:16:13.197Z,160762.03
2022-10-15T16:18:41.952Z,160737.94
2022-10-15T16:21:09.891Z,160736.59
2022-10-15T16:23:38.071Z,160744.63
2022-10-15T16:26:06.032Z,160752.66
2022-10-15T16:28:34.289Z,160745.97
2022-10-15T16:31:26.499Z,160740.59
2022-10-15T16:33:57.843Z,160745.97
2022-10-15T16:36:26.275Z,160713.81
2022-10-15T16:38:54.638Z,160724.53
2022-10-15T16:41:22.269Z,160717.84
2022-10-15T16:43:50.464Z,160709.81
2022-10-15T16:46:19.688Z,160688.38
2022-10-15T16:48:56.211Z,160681.63
2022-10-15T16:51:24.744Z,160664.19
2022-10-15T16:53:53.130Z,160669.56
2022-10-15T16:56:23.421Z,160660.22
2022-10-15T16:58:51.870Z,160625.41
2022-10-15T17:01:22.517Z,160633.44
2022-10-15T17:03:50.752Z,160606.63
2022-10-15T17:06:21.345Z,160599.94
2022-10-15T17:08:51.094Z,160602.66
2022-10-15T17:11:21.765Z,160593.25
2022-10-15T17:13:52.200Z,160565.13
2022-10-15T17:16:21.223Z,160569.16
2022-10-15T17:21:21.370Z,160537.00
2022-10-15T17:23:51.967Z,160538.41
2022-10-15T17:26:22.295Z,160510.28
2022-10-15T17:28:50.994Z,160506.25
2022-10-15T17:31:22.553Z,160502.22
2022-10-15T17:33:56.267Z,160483.50
2022-10-15T17:36:24.868Z,160478.13
2022-10-15T17:38:53.383Z,160468.78
2022-10-15T17:41:22.446Z,160475.47
2022-10-15T17:43:51.133Z,160464.75
2022-10-15T17:46:21.608Z,160458.06
2022-10-15T17:48:50.445Z,160459.38
2022-10-15T17:51:20.645Z,160468.78
2022-10-15T17:53:51.630Z,160471.44
2022-10-15T17:56:23.194Z,160456.72
2022-10-15T17:58:52.572Z,160458.06
2022-10-15T18:01:39.185Z,160448.69
2022-10-15T18:04:18.224Z,160450.03
2022-10-15T18:06:46.040Z,160459.38
2022-10-15T18:09:27.688Z,160464.75
2022-10-15T18:12:03.945Z,160455.41
2022-10-15T18:14:34.555Z,160456.72
2022-10-15T18:17:02.451Z,160456.72
2022-10-15T18:19:31.141Z,160462.09
2022-10-15T18:21:59.534Z,160463.41
2022-10-15T18:24:27.505Z,160459.38
2022-10-15T18:26:55.830Z,160455.41
2022-10-15T18:29:25.648Z,160478.13
2022-10-15T18:31:57.674Z,160476.81
2022-10-15T18:34:28.180Z,160482.16
2022-10-15T18:36:56.634Z,160479.47
2022-10-15T18:39:25.288Z,160490.19
2022-10-15T18:41:54.204Z,160498.22
2022-10-15T18:44:23.483Z,160488.88
2022-10-15T18:46:52.270Z,160510.28
2022-10-15T18:49:21.696Z,160508.91
2022-10-15T18:51:51.922Z,160525.00
2022-10-15T18:54:21.105Z,160515.59
2022-10-15T18:56:48.913Z,160516.94
2022-10-15T18:59:20.332Z,160506.25
2022-10-15T19:01:49.913Z,160499.53
2022-10-15T19:04:19.654Z,160490.19
2022-10-15T19:06:51.072Z,160490.19
2022-10-15T19:09:23.063Z,160483.50
2022-10-15T19:11:53.706Z,160476.81
2022-10-15T19:14:22.579Z,160491.53
2022-10-15T19:16:50.929Z,160484.81
2022-10-15T19:19:21.413Z,160480.78
2022-10-15T19:21:50.513Z,160495.50
2022-10-15T19:24:20.002Z,160478.13
2022-10-15T19:26:48.662Z,160500.88
2022-10-15T19:29:17.324Z,160483.50
2022-10-15T19:31:49.496Z,160515.59
2022-10-15T19:34:17.708Z,160516.94
2022-10-15T19:36:48.787Z,160516.94
2022-10-15T19:39:20.535Z,160510.28
2022-10-15T19:41:49.421Z,160531.69
2022-10-15T19:44:20.202Z,160519.63
2022-10-15T19:46:48.432Z,160525.00
2022-10-15T19:49:16.548Z,160506.25
2022-10-15T19:51:46.897Z,160510.28
2022-10-15T19:54:15.592Z,160487.50
2022-10-15T19:56:43.653Z,160499.53
2022-10-15T19:59:12.099Z,160488.88
2022-10-15T20:01:40.012Z,160483.50
2022-10-15T20:04:08.327Z,160478.13
2022-10-15T20:06:38.507Z,160471.44
2022-10-15T20:09:07.879Z,160475.47
2022-10-15T20:11:37.330Z,160459.38
2022-10-15T20:14:06.081Z,160452.69
2022-10-15T20:16:33.903Z,160435.31
2022-10-15T20:19:04.208Z,160429.94
2022-10-15T20:21:33.032Z,160420.59
2022-10-15T20:24:05.158Z,160412.56
2022-10-15T20:26:34.144Z,160413.91
2022-10-15T20:29:02.793Z,160397.84
2022-10-15T20:31:33.300Z,160389.78
2022-10-15T20:34:03.210Z,160381.75
2022-10-15T20:36:31.844Z,160353.59
2022-10-15T20:39:01.504Z,160336.25
2022-10-15T20:41:29.358Z,160338.91
2022-10-15T20:43:57.942Z,160329.53
2022-10-15T20:46:41.348Z,160312.19
2022-10-15T20:49:22.452Z,160297.41
2022-10-15T20:51:51.214Z,160269.31
2022-10-15T20:54:19.883Z,160261.28
2022-10-15T20:56:48.431Z,160257.31
2022-10-15T20:59:16.514Z,160230.53
2022-10-15T21:01:44.923Z,160250.63
2022-10-15T21:04:13.383Z,160239.91
2022-10-15T21:06:41.163Z,160241.22
2022-10-15T21:09:09.175Z,160234.59
2022-10-15T21:11:42.407Z,160243.94
2022-10-15T21:14:11.364Z,160245.25
2022-10-15T21:16:40.897Z,160257.31
2022-10-15T21:19:09.489Z,160261.28
2022-10-15T21:21:37.730Z,160261.28
2022-10-15T21:24:05.893Z,160261.28
2022-10-15T21:26:33.764Z,160258.63
2022-10-15T21:29:02.064Z,160264.00
2022-10-15T21:31:29.943Z,160278.72
2022-10-15T21:33:58.507Z,160288.06
2022-10-15T21:36:28.053Z,160300.13
2022-10-15T21:39:04.678Z,160294.75
2022-10-15T21:41:34.523Z,160297.41
2022-10-15T21:44:04.291Z,160289.41
2022-10-15T21:46:33.577Z,160297.41
2022-10-15T21:49:02.651Z,160276.00
2022-10-15T21:51:33.911Z,160285.41
2022-10-15T21:54:03.752Z,160298.78
2022-10-15T21:56:32.252Z,160290.72
2022-10-15T21:59:00.836Z,160282.69
2022-10-15T22:01:33.748Z,160286.75
2022-10-15T22:04:08.075Z,160281.38
2022-10-15T22:06:36.828Z,160293.44
2022-10-15T22:09:05.341Z,160293.44
2022-10-15T22:11:39.135Z,160286.75
2022-10-15T22:14:11.427Z,160269.31
2022-10-15T22:16:40.213Z,160278.72
2022-10-15T22:19:09.886Z,160261.28
2022-10-15T22:21:38.711Z,160253.28
2022-10-15T22:24:18.552Z,160247.91
2022-10-15T22:26:49.720Z,160235.91
2022-10-15T22:29:26.234Z,160225.19
2022-10-15T22:31:55.731Z,160223.84
2022-10-15T22:34:24.332Z,160218.50
2022-10-15T22:36:52.132Z,160202.47
2022-10-15T22:39:20.600Z,160190.41
2022-10-15T22:41:48.642Z,160213.13
2022-10-15T22:44:20.859Z,160207.81
2022-10-15T22:46:49.827Z,160226.50
2022-10-15T22:49:20.140Z,160223.84
2022-10-15T22:51:48.839Z,160213.13
2022-10-15T22:54:18.039Z,160218.50
2022-10-15T22:56:47.744Z,160205.13
2022-10-15T22:59:16.254Z,160214.50
2022-10-15T23:01:46.111Z,160186.41
2022-10-15T23:04:16.759Z,160202.47
2022-10-15T23:06:44.717Z,160189.06
2022-10-15T23:09:18.263Z,160165.03
2022-10-15T23:11:46.874Z,160183.72
2022-10-15T23:14:16.424Z,160187.75
2022-10-15T23:16:46.778Z,160183.72
2022-10-15T23:19:17.571Z,160167.69
2022-10-15T23:22:05.553Z,160191.72
2022-10-15T23:24:33.908Z,160183.72
2022-10-15T23:27:02.213Z,160187.75
2022-10-15T23:29:30.316Z,160179.72
2022-10-15T23:31:58.649Z,160154.31
2022-10-15T23:34:27.267Z,160159.66
2022-10-15T23:36:55.248Z,160154.31
2022-10-15T23:39:26.896Z,160166.34
2022-10-15T23:41:55.273Z,160183.72
2022-10-15T23:44:26.021Z,160173.03
2022-10-15T23:46:54.807Z,160179.72
2022-10-15T23:49:23.135Z,160195.75
2022-10-15T23:51:50.822Z,160183.72
2022-10-15T23:54:18.944Z,160201.13
2022-10-15T23:56:47.499Z,160211.81
2022-10-15T23:59:16.892Z,160191.72
